sensor_id;sensor_type;location;lat;lon;timestamp;pressure;altitude;pressure_sealevel;temperature;humidity
64683;BME280;51107;47.652;19.016;2024-01-16T00:01:29;98654.06;;;0.53;79.12
64683;BME280;51107;47.652;19.016;2024-01-16T00:03:57;98672.00;;;0.64;78.39
64683;BME280;51107;47.652;19.016;2024-01-16T00:06:25;98670.75;;;0.70;77.99
64683;BME280;51107;47.652;19.016;2024-01-16T00:08:53;98683.88;;;0.54;78.72
64683;BME280;51107;47.652;19.016;2024-01-16T00:11:21;98677.38;;;0.61;78.15
64683;BME280;51107;47.652;19.016;2024-01-16T00:13:50;98674.69;;;0.52;78.52
64683;BME280;51107;47.652;19.016;2024-01-16T00:16:18;98683.66;;;0.57;78.88
64683;BME280;51107;47.652;19.016;2024-01-16T00:18:46;98682.47;;;0.50;79.42
64683;BME280;51107;47.652;19.016;2024-01-16T00:21:15;98693.00;;;0.70;78.21
64683;BME280;51107;47.652;19.016;2024-01-16T00:23:43;98710.31;;;0.43;79.44
64683;BME280;51107;47.652;19.016;2024-01-16T00:26:22;98699.28;;;0.65;79.12
64683;BME280;51107;47.652;19.016;2024-01-16T00:28:50;98710.09;;;0.58;79.24
64683;BME280;51107;47.652;19.016;2024-01-16T00:31:19;98720.47;;;0.56;79.82
64683;BME280;51107;47.652;19.016;2024-01-16T00:33:47;98714.00;;;0.75;78.87
64683;BME280;51107;47.652;19.016;2024-01-16T00:36:15;98726.69;;;0.76;78.88
64683;BME280;51107;47.652;19.016;2024-01-16T00:38:46;98732.12;;;0.72;78.89
64683;BME280;51107;47.652;19.016;2024-01-16T00:41:14;98729.16;;;0.42;80.84
64683;BME280;51107;47.652;19.016;2024-01-16T00:43:45;98737.97;;;0.74;79.57
64683;BME280;51107;47.652;19.016;2024-01-16T00:46:13;98745.13;;;0.81;78.84
64683;BME280;51107;47.652;19.016;2024-01-16T00:48:41;98743.00;;;0.87;78.29
64683;BME280;51107;47.652;19.016;2024-01-16T00:51:09;98751.97;;;0.81;78.56
64683;BME280;51107;47.652;19.016;2024-01-16T00:53:41;98753.63;;;1.05;77.33
64683;BME280;51107;47.652;19.016;2024-01-16T00:56:10;98757.03;;;0.94;77.24
64683;BME280;51107;47.652;19.016;2024-01-16T00:58:39;98755.84;;;0.87;77.69
64683;BME280;51107;47.652;19.016;2024-01-16T01:01:07;98776.47;;;0.85;77.30
64683;BME280;51107;47.652;19.016;2024-01-16T01:03:35;98767.84;;;0.86;77.28
64683;BME280;51107;47.652;19.016;2024-01-16T01:06:04;98755.62;;;0.90;76.94
64683;BME280;51107;47.652;19.016;2024-01-16T01:08:32;98779.50;;;0.79;77.36
64683;BME280;51107;47.652;19.016;2024-01-16T01:11:00;98771.81;;;1.01;76.44
64683;BME280;51107;47.652;19.016;2024-01-16T01:13:29;98783.22;;;0.86;77.20
64683;BME280;51107;47.652;19.016;2024-01-16T01:15:57;98782.94;;;0.66;78.19
64683;BME280;51107;47.652;19.016;2024-01-16T01:18:25;98791.09;;;0.72;78.08
64683;BME280;51107;47.652;19.016;2024-01-16T01:20:54;98779.84;;;0.86;77.00
64683;BME280;51107;47.652;19.016;2024-01-16T01:23:22;98788.59;;;0.94;76.79
64683;BME280;51107;47.652;19.016;2024-01-16T01:25:50;98794.53;;;0.83;76.78
64683;BME280;51107;47.652;19.016;2024-01-16T01:28:18;98796.97;;;0.85;76.61
64683;BME280;51107;47.652;19.016;2024-01-16T01:30:46;98802.72;;;0.64;76.82
64683;BME280;51107;47.652;19.016;2024-01-16T01:33:15;98807.03;;;0.99;75.37
64683;BME280;51107;47.652;19.016;2024-01-16T01:35:43;98808.31;;;0.94;75.37
64683;BME280;51107;47.652;19.016;2024-01-16T01:38:11;98802.31;;;0.71;76.14
64683;BME280;51107;47.652;19.016;2024-01-16T01:40:39;98812.66;;;0.69;76.46
64683;BME280;51107;47.652;19.016;2024-01-16T01:43:21;98803.72;;;0.75;76.13
64683;BME280;51107;47.652;19.016;2024-01-16T01:46:11;98813.09;;;0.63;76.17
64683;BME280;51107;47.652;19.016;2024-01-16T01:48:41;98806.63;;;0.46;76.95
64683;BME280;51107;47.652;19.016;2024-01-16T01:51:12;98811.47;;;0.62;76.27
64683;BME280;51107;47.652;19.016;2024-01-16T01:53:42;98817.19;;;0.41;77.36
64683;BME280;51107;47.652;19.016;2024-01-16T01:56:14;98810.84;;;0.47;77.07
64683;BME280;51107;47.652;19.016;2024-01-16T01:58:44;98837.28;;;0.47;77.06
64683;BME280;51107;47.652;19.016;2024-01-16T02:01:14;98833.59;;;0.87;74.86
64683;BME280;51107;47.652;19.016;2024-01-16T02:03:47;98831.12;;;0.50;76.48
64683;BME280;51107;47.652;19.016;2024-01-16T02:06:16;98842.81;;;0.65;75.46
64683;BME280;51107;47.652;19.016;2024-01-16T02:08:45;98843.37;;;0.33;76.92
64683;BME280;51107;47.652;19.016;2024-01-16T02:11:13;98833.38;;;0.66;75.60
64683;BME280;51107;47.652;19.016;2024-01-16T02:13:41;98843.94;;;0.50;75.85
64683;BME280;51107;47.652;19.016;2024-01-16T02:16:23;98845.53;;;0.75;74.46
64683;BME280;51107;47.652;19.016;2024-01-16T02:18:52;98849.22;;;0.60;75.00
64683;BME280;51107;47.652;19.016;2024-01-16T02:21:21;98848.81;;;0.53;75.12
64683;BME280;51107;47.652;19.016;2024-01-16T02:23:50;98852.84;;;0.93;73.28
64683;BME280;51107;47.652;19.016;2024-01-16T02:26:18;98864.28;;;0.76;74.04
64683;BME280;51107;47.652;19.016;2024-01-16T02:28:48;98866.44;;;0.82;73.62
64683;BME280;51107;47.652;19.016;2024-01-16T02:31:16;98871.25;;;0.62;74.57
64683;BME280;51107;47.652;19.016;2024-01-16T02:33:45;98873.75;;;0.51;74.72
64683;BME280;51107;47.652;19.016;2024-01-16T02:36:13;98878.22;;;0.60;75.27
64683;BME280;51107;47.652;19.016;2024-01-16T02:38:41;98881.16;;;0.67;75.14
64683;BME280;51107;47.652;19.016;2024-01-16T02:41:14;98885.25;;;0.70;75.36
64683;BME280;51107;47.652;19.016;2024-01-16T02:43:43;98884.97;;;0.61;76.09
64683;BME280;51107;47.652;19.016;2024-01-16T02:46:11;98883.50;;;0.46;76.93
64683;BME280;51107;47.652;19.016;2024-01-16T02:48:40;98885.84;;;0.49;76.81
64683;BME280;51107;47.652;19.016;2024-01-16T02:51:10;98887.28;;;0.53;77.31
64683;BME280;51107;47.652;19.016;2024-01-16T02:53:38;98890.28;;;0.34;78.16
64683;BME280;51107;47.652;19.016;2024-01-16T02:56:08;98894.97;;;0.53;77.59
64683;BME280;51107;47.652;19.016;2024-01-16T02:58:36;98884.75;;;0.64;76.98
64683;BME280;51107;47.652;19.016;2024-01-16T03:01:04;98893.97;;;0.43;77.86
64683;BME280;51107;47.652;19.016;2024-01-16T03:03:32;98884.38;;;0.33;78.22
64683;BME280;51107;47.652;19.016;2024-01-16T03:06:00;98894.44;;;0.61;76.54
64683;BME280;51107;47.652;19.016;2024-01-16T03:08:29;98888.84;;;0.43;77.06
64683;BME280;51107;47.652;19.016;2024-01-16T03:10:57;98888.94;;;0.41;76.88
64683;BME280;51107;47.652;19.016;2024-01-16T03:13:25;98891.44;;;0.30;77.21
64683;BME280;51107;47.652;19.016;2024-01-16T03:15:53;98903.44;;;0.29;77.64
64683;BME280;51107;47.652;19.016;2024-01-16T03:18:22;98904.56;;;0.25;77.51
64683;BME280;51107;47.652;19.016;2024-01-16T03:20:50;98909.19;;;0.20;77.75
64683;BME280;51107;47.652;19.016;2024-01-16T03:23:18;98900.31;;;0.13;78.35
64683;BME280;51107;47.652;19.016;2024-01-16T03:25:47;98921.63;;;0.01;78.21
64683;BME280;51107;47.652;19.016;2024-01-16T03:28:15;98915.56;;;0.14;77.55
64683;BME280;51107;47.652;19.016;2024-01-16T03:30:43;98919.72;;;0.28;77.18
64683;BME280;51107;47.652;19.016;2024-01-16T03:33:11;98930.31;;;0.11;77.38
64683;BME280;51107;47.652;19.016;2024-01-16T03:35:39;98936.16;;;0.13;77.37
64683;BME280;51107;47.652;19.016;2024-01-16T03:38:07;98930.81;;;0.16;77.01
64683;BME280;51107;47.652;19.016;2024-01-16T03:40:36;98939.31;;;0.16;77.17
64683;BME280;51107;47.652;19.016;2024-01-16T03:43:04;98939.41;;;0.15;76.70
64683;BME280;51107;47.652;19.016;2024-01-16T03:45:33;98937.06;;;0.12;77.30
64683;BME280;51107;47.652;19.016;2024-01-16T03:48:02;98936.56;;;0.07;77.07
64683;BME280;51107;47.652;19.016;2024-01-16T03:50:31;98942.75;;;0.41;74.99
64683;BME280;51107;47.652;19.016;2024-01-16T03:52:59;98945.00;;;0.46;74.37
64683;BME280;51107;47.652;19.016;2024-01-16T03:55:27;98948.41;;;0.33;74.25
64683;BME280;51107;47.652;19.016;2024-01-16T03:57:55;98948.53;;;0.19;74.71
64683;BME280;51107;47.652;19.016;2024-01-16T04:00:23;98956.31;;;0.17;75.05
64683;BME280;51107;47.652;19.016;2024-01-16T04:02:52;98965.47;;;0.09;75.10
64683;BME280;51107;47.652;19.016;2024-01-16T04:05:20;98963.87;;;0.45;73.42
64683;BME280;51107;47.652;19.016;2024-01-16T04:07:48;98966.97;;;0.24;73.97
64683;BME280;51107;47.652;19.016;2024-01-16T04:10:16;98980.03;;;0.45;73.11
64683;BME280;51107;47.652;19.016;2024-01-16T04:12:44;98973.03;;;0.60;72.67
64683;BME280;51107;47.652;19.016;2024-01-16T04:15:12;98981.09;;;0.43;72.81
64683;BME280;51107;47.652;19.016;2024-01-16T04:17:40;98982.59;;;0.45;72.54
64683;BME280;51107;47.652;19.016;2024-01-16T04:20:10;98991.66;;;0.51;72.29
64683;BME280;51107;47.652;19.016;2024-01-16T04:22:38;98979.59;;;0.64;71.23
64683;BME280;51107;47.652;19.016;2024-01-16T04:25:06;98991.44;;;0.54;71.50
64683;BME280;51107;47.652;19.016;2024-01-16T04:27:34;98989.25;;;0.61;70.83
64683;BME280;51107;47.652;19.016;2024-01-16T04:30:02;98998.69;;;0.60;70.55
64683;BME280;51107;47.652;19.016;2024-01-16T04:32:31;98992.47;;;0.76;68.67
64683;BME280;51107;47.652;19.016;2024-01-16T04:34:59;98996.00;;;0.62;69.78
64683;BME280;51107;47.652;19.016;2024-01-16T04:37:27;98992.97;;;0.81;68.67
64683;BME280;51107;47.652;19.016;2024-01-16T04:39:55;98992.00;;;0.71;69.01
64683;BME280;51107;47.652;19.016;2024-01-16T04:42:26;98997.66;;;0.63;69.17
64683;BME280;51107;47.652;19.016;2024-01-16T04:44:54;99002.44;;;0.67;68.79
64683;BME280;51107;47.652;19.016;2024-01-16T04:47:22;99014.75;;;0.75;68.55
64683;BME280;51107;47.652;19.016;2024-01-16T04:49:50;99017.13;;;0.65;68.82
64683;BME280;51107;47.652;19.016;2024-01-16T04:52:19;99028.09;;;0.67;68.08
64683;BME280;51107;47.652;19.016;2024-01-16T04:54:47;99027.16;;;0.68;68.53
64683;BME280;51107;47.652;19.016;2024-01-16T04:57:15;99037.00;;;0.75;68.23
64683;BME280;51107;47.652;19.016;2024-01-16T04:59:43;99040.72;;;0.71;68.11
64683;BME280;51107;47.652;19.016;2024-01-16T05:02:11;99035.06;;;0.65;68.24
64683;BME280;51107;47.652;19.016;2024-01-16T05:04:41;99051.84;;;0.82;67.63
64683;BME280;51107;47.652;19.016;2024-01-16T05:07:09;99058.88;;;0.55;68.82
64683;BME280;51107;47.652;19.016;2024-01-16T05:09:38;99054.75;;;0.52;69.01
64683;BME280;51107;47.652;19.016;2024-01-16T05:12:12;99060.69;;;0.65;68.66
64683;BME280;51107;47.652;19.016;2024-01-16T05:14:51;99055.06;;;0.60;68.55
64683;BME280;51107;47.652;19.016;2024-01-16T05:17:21;99063.06;;;0.68;67.81
64683;BME280;51107;47.652;19.016;2024-01-16T05:19:49;99069.44;;;0.50;68.55
64683;BME280;51107;47.652;19.016;2024-01-16T05:22:18;99069.75;;;0.58;68.37
64683;BME280;51107;47.652;19.016;2024-01-16T05:24:46;99063.87;;;0.69;67.68
64683;BME280;51107;47.652;19.016;2024-01-16T05:27:15;99071.66;;;0.67;67.62
64683;BME280;51107;47.652;19.016;2024-01-16T05:29:43;99076.16;;;0.77;66.81
64683;BME280;51107;47.652;19.016;2024-01-16T05:32:13;99086.41;;;0.77;67.05
64683;BME280;51107;47.652;19.016;2024-01-16T05:34:41;99088.19;;;0.76;66.24
64683;BME280;51107;47.652;19.016;2024-01-16T05:37:10;99098.75;;;0.46;67.49
64683;BME280;51107;47.652;19.016;2024-01-16T05:39:38;99088.59;;;0.57;67.53
64683;BME280;51107;47.652;19.016;2024-01-16T05:42:09;99107.16;;;0.48;67.89
64683;BME280;51107;47.652;19.016;2024-01-16T05:44:39;99095.97;;;0.75;66.43
64683;BME280;51107;47.652;19.016;2024-01-16T05:47:08;99101.94;;;0.62;66.54
64683;BME280;51107;47.652;19.016;2024-01-16T05:49:36;99109.63;;;0.37;67.74
64683;BME280;51107;47.652;19.016;2024-01-16T05:52:08;99101.81;;;0.25;68.47
64683;BME280;51107;47.652;19.016;2024-01-16T05:54:38;99114.12;;;0.46;67.13
64683;BME280;51107;47.652;19.016;2024-01-16T05:57:06;99095.06;;;0.50;66.75
64683;BME280;51107;47.652;19.016;2024-01-16T05:59:34;99111.78;;;0.43;66.90
64683;BME280;51107;47.652;19.016;2024-01-16T06:02:04;99121.22;;;0.55;66.43
64683;BME280;51107;47.652;19.016;2024-01-16T06:04:32;99122.53;;;0.22;68.04
64683;BME280;51107;47.652;19.016;2024-01-16T06:07:00;99118.91;;;0.12;68.32
64683;BME280;51107;47.652;19.016;2024-01-16T06:09:28;99126.22;;;0.31;67.73
64683;BME280;51107;47.652;19.016;2024-01-16T06:11:56;99127.94;;;0.17;68.38
64683;BME280;51107;47.652;19.016;2024-01-16T06:14:24;99144.94;;;0.19;68.40
64683;BME280;51107;47.652;19.016;2024-01-16T06:16:52;99152.00;;;0.15;68.28
64683;BME280;51107;47.652;19.016;2024-01-16T06:19:21;99143.09;;;0.08;68.77
64683;BME280;51107;47.652;19.016;2024-01-16T06:21:49;99155.03;;;-0.06;69.15
64683;BME280;51107;47.652;19.016;2024-01-16T06:24:20;99149.75;;;0.10;68.47
64683;BME280;51107;47.652;19.016;2024-01-16T06:26:48;99153.78;;;-0.13;69.26
64683;BME280;51107;47.652;19.016;2024-01-16T06:29:16;99163.22;;;-0.13;69.45
64683;BME280;51107;47.652;19.016;2024-01-16T06:31:58;99172.34;;;-0.09;69.41
64683;BME280;51107;47.652;19.016;2024-01-16T06:34:27;99162.78;;;-0.20;69.80
64683;BME280;51107;47.652;19.016;2024-01-16T06:36:56;99168.44;;;-0.15;69.71
64683;BME280;51107;47.652;19.016;2024-01-16T06:39:24;99167.78;;;-0.19;69.46
64683;BME280;51107;47.652;19.016;2024-01-16T06:41:52;99184.91;;;-0.19;69.12
64683;BME280;51107;47.652;19.016;2024-01-16T06:44:21;99188.66;;;-0.25;69.48
64683;BME280;51107;47.652;19.016;2024-01-16T06:46:49;99194.88;;;-0.02;68.34
64683;BME280;51107;47.652;19.016;2024-01-16T06:49:18;99194.75;;;-0.13;69.00
64683;BME280;51107;47.652;19.016;2024-01-16T06:51:46;99191.72;;;-0.05;68.28
64683;BME280;51107;47.652;19.016;2024-01-16T06:54:14;99201.84;;;-0.04;68.25
64683;BME280;51107;47.652;19.016;2024-01-16T06:56:42;99197.78;;;0.07;68.28
64683;BME280;51107;47.652;19.016;2024-01-16T06:59:10;99211.41;;;0.35;67.04
64683;BME280;51107;47.652;19.016;2024-01-16T07:01:39;99211.25;;;0.23;67.22
64683;BME280;51107;47.652;19.016;2024-01-16T07:04:07;99210.28;;;0.39;66.82
64683;BME280;51107;47.652;19.016;2024-01-16T07:06:36;99216.63;;;0.46;66.51
64683;BME280;51107;47.652;19.016;2024-01-16T07:09:04;99218.19;;;0.48;65.90
64683;BME280;51107;47.652;19.016;2024-01-16T07:11:33;99230.50;;;0.56;65.29
64683;BME280;51107;47.652;19.016;2024-01-16T07:14:01;99227.12;;;0.68;65.47
64683;BME280;51107;47.652;19.016;2024-01-16T07:16:29;99234.62;;;0.84;64.97
64683;BME280;51107;47.652;19.016;2024-01-16T07:18:58;99244.56;;;0.89;64.59
64683;BME280;51107;47.652;19.016;2024-01-16T07:21:26;99241.31;;;1.26;63.15
64683;BME280;51107;47.652;19.016;2024-01-16T07:23:56;99234.31;;;1.41;62.19
64683;BME280;51107;47.652;19.016;2024-01-16T07:26:25;99252.47;;;1.25;62.75
64683;BME280;51107;47.652;19.016;2024-01-16T07:28:53;99245.38;;;1.41;63.24
64683;BME280;51107;47.652;19.016;2024-01-16T07:31:23;99258.50;;;1.49;61.99
64683;BME280;51107;47.652;19.016;2024-01-16T07:33:51;99263.31;;;1.54;62.18
64683;BME280;51107;47.652;19.016;2024-01-16T07:36:19;99266.41;;;1.59;61.49
64683;BME280;51107;47.652;19.016;2024-01-16T07:38:48;99258.88;;;1.82;60.59
64683;BME280;51107;47.652;19.016;2024-01-16T07:41:16;99272.00;;;1.90;61.51
64683;BME280;51107;47.652;19.016;2024-01-16T07:43:44;99281.34;;;2.15;60.74
64683;BME280;51107;47.652;19.016;2024-01-16T07:46:16;99287.88;;;1.95;60.03
64683;BME280;51107;47.652;19.016;2024-01-16T07:48:44;99288.72;;;1.96;60.26
64683;BME280;51107;47.652;19.016;2024-01-16T07:51:13;99298.59;;;1.76;60.38
64683;BME280;51107;47.652;19.016;2024-01-16T07:53:42;99297.69;;;1.90;59.88
64683;BME280;51107;47.652;19.016;2024-01-16T07:56:10;99310.03;;;1.59;60.34
64683;BME280;51107;47.652;19.016;2024-01-16T07:58:39;99310.44;;;1.66;60.19
64683;BME280;51107;47.652;19.016;2024-01-16T08:01:07;99322.28;;;1.43;61.00
64683;BME280;51107;47.652;19.016;2024-01-16T08:03:35;99324.63;;;1.46;60.45
64683;BME280;51107;47.652;19.016;2024-01-16T08:06:03;99331.44;;;1.34;59.91
64683;BME280;51107;47.652;19.016;2024-01-16T08:08:31;99320.34;;;1.46;59.52
64683;BME280;51107;47.652;19.016;2024-01-16T08:11:02;99328.34;;;1.29;60.90
64683;BME280;51107;47.652;19.016;2024-01-16T08:13:30;99334.81;;;1.34;60.14
64683;BME280;51107;47.652;19.016;2024-01-16T08:15:59;99333.47;;;1.29;60.81
64683;BME280;51107;47.652;19.016;2024-01-16T08:18:28;99337.69;;;1.30;60.77
64683;BME280;51107;47.652;19.016;2024-01-16T08:21:00;99337.69;;;1.43;60.30
64683;BME280;51107;47.652;19.016;2024-01-16T08:23:28;99344.47;;;1.31;60.29
64683;BME280;51107;47.652;19.016;2024-01-16T08:25:56;99333.56;;;1.40;60.25
64683;BME280;51107;47.652;19.016;2024-01-16T08:28:24;99349.59;;;1.44;60.44
64683;BME280;51107;47.652;19.016;2024-01-16T08:30:54;99354.00;;;1.29;60.46
64683;BME280;51107;47.652;19.016;2024-01-16T08:33:22;99343.53;;;1.58;59.85
64683;BME280;51107;47.652;19.016;2024-01-16T08:36:04;99353.47;;;1.75;59.17
64683;BME280;51107;47.652;19.016;2024-01-16T08:38:32;99350.38;;;1.83;58.56
64683;BME280;51107;47.652;19.016;2024-01-16T08:41:00;99354.09;;;1.79;58.57
64683;BME280;51107;47.652;19.016;2024-01-16T08:43:28;99363.94;;;1.72;59.42
64683;BME280;51107;47.652;19.016;2024-01-16T08:45:56;99358.09;;;1.96;58.45
64683;BME280;51107;47.652;19.016;2024-01-16T08:48:25;99356.06;;;1.75;58.77
64683;BME280;51107;47.652;19.016;2024-01-16T08:50:53;99359.84;;;1.82;58.59
64683;BME280;51107;47.652;19.016;2024-01-16T08:53:22;99355.31;;;1.73;59.39
64683;BME280;51107;47.652;19.016;2024-01-16T08:55:51;99365.88;;;2.07;57.65
64683;BME280;51107;47.652;19.016;2024-01-16T08:58:19;99362.78;;;2.02;57.60
64683;BME280;51107;47.652;19.016;2024-01-16T09:00:47;99378.44;;;1.86;58.25
64683;BME280;51107;47.652;19.016;2024-01-16T09:03:16;99376.69;;;1.86;58.30
64683;BME280;51107;47.652;19.016;2024-01-16T09:05:45;99373.31;;;1.86;58.70
64683;BME280;51107;47.652;19.016;2024-01-16T09:08:13;99381.78;;;1.99;57.91
64683;BME280;51107;47.652;19.016;2024-01-16T09:10:42;99383.37;;;1.89;57.98
64683;BME280;51107;47.652;19.016;2024-01-16T09:13:10;99390.97;;;1.78;58.43
64683;BME280;51107;47.652;19.016;2024-01-16T09:15:39;99387.38;;;1.93;57.80
64683;BME280;51107;47.652;19.016;2024-01-16T09:18:07;99395.12;;;2.30;57.89
64683;BME280;51107;47.652;19.016;2024-01-16T09:20:36;99398.69;;;2.89;56.63
64683;BME280;51107;47.652;19.016;2024-01-16T09:23:04;99400.44;;;3.13;54.96
64683;BME280;51107;47.652;19.016;2024-01-16T09:25:32;99397.19;;;3.33;54.78
64683;BME280;51107;47.652;19.016;2024-01-16T09:28:01;99403.88;;;3.36;54.03
64683;BME280;51107;47.652;19.016;2024-01-16T09:30:29;99403.81;;;3.83;54.71
64683;BME280;51107;47.652;19.016;2024-01-16T09:32:59;99399.50;;;3.83;52.56
64683;BME280;51107;47.652;19.016;2024-01-16T09:35:27;99402.44;;;4.01;52.73
64683;BME280;51107;47.652;19.016;2024-01-16T09:37:55;99402.84;;;4.40;52.26
64683;BME280;51107;47.652;19.016;2024-01-16T09:40:23;99397.69;;;4.52;50.66
64683;BME280;51107;47.652;19.016;2024-01-16T09:42:51;99400.75;;;4.46;51.10
64683;BME280;51107;47.652;19.016;2024-01-16T09:45:20;99399.37;;;4.07;51.15
64683;BME280;51107;47.652;19.016;2024-01-16T09:47:51;99412.88;;;4.00;52.09
64683;BME280;51107;47.652;19.016;2024-01-16T09:50:22;99411.56;;;4.17;51.44
64683;BME280;51107;47.652;19.016;2024-01-16T09:52:50;99409.91;;;4.38;51.67
64683;BME280;51107;47.652;19.016;2024-01-16T09:55:18;99396.56;;;3.88;51.48
64683;BME280;51107;47.652;19.016;2024-01-16T09:57:49;99404.88;;;4.37;50.81
64683;BME280;51107;47.652;19.016;2024-01-16T10:00:21;99395.75;;;4.10;51.92
64683;BME280;51107;47.652;19.016;2024-01-16T10:02:50;99405.94;;;4.23;50.35
64683;BME280;51107;47.652;19.016;2024-01-16T10:05:18;99404.94;;;4.58;51.07
64683;BME280;51107;47.652;19.016;2024-01-16T10:07:46;99394.94;;;4.97;49.84
64683;BME280;51107;47.652;19.016;2024-01-16T10:10:16;99395.00;;;4.86;49.62
64683;BME280;51107;47.652;19.016;2024-01-16T10:12:53;99393.06;;;4.99;48.23
64683;BME280;51107;47.652;19.016;2024-01-16T10:15:23;99400.59;;;4.58;49.04
64683;BME280;51107;47.652;19.016;2024-01-16T10:17:51;99390.19;;;4.49;49.31
64683;BME280;51107;47.652;19.016;2024-01-16T10:20:32;99405.28;;;4.65;49.05
64683;BME280;51107;47.652;19.016;2024-01-16T10:23:02;99404.66;;;4.72;49.74
64683;BME280;51107;47.652;19.016;2024-01-16T10:25:31;99397.31;;;4.89;47.64
64683;BME280;51107;47.652;19.016;2024-01-16T10:28:04;99398.41;;;4.86;48.68
64683;BME280;51107;47.652;19.016;2024-01-16T10:30:33;99400.16;;;4.86;48.45
64683;BME280;51107;47.652;19.016;2024-01-16T10:33:15;99399.50;;;5.26;47.22
64683;BME280;51107;47.652;19.016;2024-01-16T10:35:44;99410.47;;;5.39;47.94
64683;BME280;51107;47.652;19.016;2024-01-16T10:38:20;99391.47;;;5.40;46.83
64683;BME280;51107;47.652;19.016;2024-01-16T10:41:04;99400.94;;;4.98;46.96
64683;BME280;51107;47.652;19.016;2024-01-16T10:43:32;99402.78;;;4.74;47.91
64683;BME280;51107;47.652;19.016;2024-01-16T10:46:11;99400.78;;;4.78;47.48
64683;BME280;51107;47.652;19.016;2024-01-16T10:49:01;99405.66;;;5.14;46.89
64683;BME280;51107;47.652;19.016;2024-01-16T10:51:31;99404.50;;;4.85;47.83
64683;BME280;51107;47.652;19.016;2024-01-16T10:54:03;99401.00;;;4.86;46.84
64683;BME280;51107;47.652;19.016;2024-01-16T10:56:34;99396.81;;;4.63;47.62
64683;BME280;51107;47.652;19.016;2024-01-16T10:59:16;99411.25;;;4.65;48.25
64683;BME280;51107;47.652;19.016;2024-01-16T11:01:49;99402.88;;;4.84;48.20
64683;BME280;51107;47.652;19.016;2024-01-16T11:04:20;99410.88;;;5.02;47.74
64683;BME280;51107;47.652;19.016;2024-01-16T11:06:51;99399.94;;;4.78;46.86
64683;BME280;51107;47.652;19.016;2024-01-16T11:09:22;99395.53;;;5.01;47.53
64683;BME280;51107;47.652;19.016;2024-01-16T11:11:53;99401.75;;;4.98;48.01
64683;BME280;51107;47.652;19.016;2024-01-16T11:14:24;99393.41;;;4.73;47.34
64683;BME280;51107;47.652;19.016;2024-01-16T11:16:54;99404.44;;;4.64;47.38
64683;BME280;51107;47.652;19.016;2024-01-16T11:19:25;99396.00;;;4.62;47.24
64683;BME280;51107;47.652;19.016;2024-01-16T11:22:14;99409.25;;;4.69;48.05
64683;BME280;51107;47.652;19.016;2024-01-16T11:24:44;99388.69;;;4.35;49.23
64683;BME280;51107;47.652;19.016;2024-01-16T11:27:22;99396.78;;;4.30;48.56
64683;BME280;51107;47.652;19.016;2024-01-16T11:29:52;99394.91;;;4.32;48.71
64683;BME280;51107;47.652;19.016;2024-01-16T11:32:53;99400.66;;;4.24;48.95
64683;BME280;51107;47.652;19.016;2024-01-16T11:35:36;99395.62;;;4.34;48.76
64683;BME280;51107;47.652;19.016;2024-01-16T11:38:17;99393.97;;;4.33;48.61
64683;BME280;51107;47.652;19.016;2024-01-16T11:40:48;99394.78;;;4.45;49.10
64683;BME280;51107;47.652;19.016;2024-01-16T11:46:04;99391.22;;;4.46;48.44
64683;BME280;51107;47.652;19.016;2024-01-16T11:48:33;99383.41;;;4.48;48.53
64683;BME280;51107;47.652;19.016;2024-01-16T11:51:22;99388.69;;;4.79;48.03
64683;BME280;51107;47.652;19.016;2024-01-16T11:53:50;99379.75;;;4.83;47.73
64683;BME280;51107;47.652;19.016;2024-01-16T11:59:32;99375.34;;;4.73;47.21
64683;BME280;51107;47.652;19.016;2024-01-16T12:02:10;99365.25;;;4.70;46.53
64683;BME280;51107;47.652;19.016;2024-01-16T12:04:40;99376.25;;;4.84;46.92
64683;BME280;51107;47.652;19.016;2024-01-16T12:07:08;99379.84;;;4.92;45.87
64683;BME280;51107;47.652;19.016;2024-01-16T12:09:36;99366.19;;;4.69;46.14
64683;BME280;51107;47.652;19.016;2024-01-16T12:12:05;99390.69;;;4.75;46.19
64683;BME280;51107;47.652;19.016;2024-01-16T12:14:33;99378.53;;;4.22;46.92
64683;BME280;51107;47.652;19.016;2024-01-16T12:17:11;99374.28;;;4.21;46.70
64683;BME280;51107;47.652;19.016;2024-01-16T12:19:40;99370.66;;;4.01;47.22
64683;BME280;51107;47.652;19.016;2024-01-16T12:22:13;99378.03;;;4.39;46.72
64683;BME280;51107;47.652;19.016;2024-01-16T12:24:42;99375.59;;;4.15;46.71
64683;BME280;51107;47.652;19.016;2024-01-16T12:27:10;99378.94;;;4.50;46.43
64683;BME280;51107;47.652;19.016;2024-01-16T12:29:39;99386.88;;;4.58;45.43
64683;BME280;51107;47.652;19.016;2024-01-16T12:32:10;99379.66;;;4.29;47.35
64683;BME280;51107;47.652;19.016;2024-01-16T12:34:44;99385.22;;;4.57;45.76
64683;BME280;51107;47.652;19.016;2024-01-16T12:37:14;99387.16;;;4.44;46.11
64683;BME280;51107;47.652;19.016;2024-01-16T12:39:42;99382.84;;;4.33;45.90
64683;BME280;51107;47.652;19.016;2024-01-16T12:42:11;99383.03;;;4.52;46.01
64683;BME280;51107;47.652;19.016;2024-01-16T12:44:41;99375.84;;;4.67;45.07
64683;BME280;51107;47.652;19.016;2024-01-16T12:47:09;99368.53;;;4.40;45.61
64683;BME280;51107;47.652;19.016;2024-01-16T12:49:41;99380.09;;;4.46;45.60
64683;BME280;51107;47.652;19.016;2024-01-16T12:52:19;99371.69;;;4.32;45.41
64683;BME280;51107;47.652;19.016;2024-01-16T12:54:58;99382.03;;;4.10;45.19
64683;BME280;51107;47.652;19.016;2024-01-16T12:57:28;99382.28;;;3.95;45.73
64683;BME280;51107;47.652;19.016;2024-01-16T12:59:56;99388.16;;;3.97;45.55
64683;BME280;51107;47.652;19.016;2024-01-16T13:02:29;99401.00;;;3.74;46.79
64683;BME280;51107;47.652;19.016;2024-01-16T13:04:59;99386.34;;;3.52;46.74
64683;BME280;51107;47.652;19.016;2024-01-16T13:07:28;99396.75;;;3.39;47.08
64683;BME280;51107;47.652;19.016;2024-01-16T13:10:09;99396.44;;;3.55;46.43
64683;BME280;51107;47.652;19.016;2024-01-16T13:12:39;99395.88;;;3.28;47.17
64683;BME280;51107;47.652;19.016;2024-01-16T13:15:09;99387.47;;;3.26;47.12
64683;BME280;51107;47.652;19.016;2024-01-16T13:17:39;99398.72;;;3.36;46.86
64683;BME280;51107;47.652;19.016;2024-01-16T13:20:07;99399.81;;;3.09;47.37